Time;durP1;ratioP1;P1;durP2;ratioP2;P2;SDS_P1;SDS_P2;PMS_P1;PMS_P2;Temp;Humidity;BMP_temperature;BMP_pressure;BME280_temperature;BME280_humidity;BME280_pressure;Samples;Min_cycle;Max_cycle;Signal;HPM_P1;HPM_P2
2021/01/12 00:02:55;;;;;;;28.10;9.70;;;3.50;53.20;;;;;;7688974;23;20347;-74
2021/01/12 00:05:56;;;;;;;27.83;11.55;;;3.50;53.40;;;;;;7688679;23;20016;-72
2021/01/12 00:08:57;;;;;;;26.42;10.82;;;3.40;53.60;;;;;;7688233;23;20017;-73
2021/01/12 00:11:58;;;;;;;25.52;9.98;;;3.40;53.70;;;;;;7687471;23;20020;-74
2021/01/12 00:14:59;;;;;;;23.50;9.73;;;3.40;53.70;;;;;;7714251;23;20019;-74
2021/01/12 00:18:00;;;;;;;28.85;11.50;;;3.40;53.70;;;;;;7688415;23;20420;-73
2021/01/12 00:21:01;;;;;;;32.15;12.15;;;3.30;53.60;;;;;;7688275;23;20020;-74
2021/01/12 00:24:02;;;;;;;24.75;10.40;;;3.30;53.70;;;;;;7688150;23;20408;-74
2021/01/12 00:27:03;;;;;;;29.70;10.48;;;3.20;53.80;;;;;;7713436;23;20454;-73
2021/01/12 00:30:05;;;;;;;35.92;12.23;;;3.20;53.80;;;;;;7713891;23;20008;-73
2021/01/12 00:33:06;;;;;;;26.73;11.45;;;3.10;54.00;;;;;;7687876;23;20012;-73
2021/01/12 00:36:07;;;;;;;33.10;12.38;;;3.10;54.10;;;;;;7688066;23;20024;-73
2021/01/12 00:39:08;;;;;;;23.85;12.30;;;3.20;54.30;;;;;;7687061;23;20316;-73
2021/01/12 00:42:09;;;;;;;27.67;11.30;;;3.20;54.30;;;;;;7687350;23;20447;-73
2021/01/12 00:45:11;;;;;;;26.65;11.75;;;3.10;54.40;;;;;;7688688;23;20032;-73
2021/01/12 00:48:12;;;;;;;22.63;10.18;;;3.10;54.70;;;;;;7686010;23;20024;-73
2021/01/12 00:51:13;;;;;;;30.20;11.38;;;3.10;54.80;;;;;;7713249;23;20025;-73
2021/01/12 00:54:16;;;;;;;29.08;11.95;;;3.00;54.80;;;;;;7688110;23;20760;-73
2021/01/12 00:57:17;;;;;;;23.30;9.85;;;3.10;54.80;;;;;;7713110;23;20039;-73
2021/01/12 01:00:19;;;;;;;23.40;9.82;;;3.00;54.70;;;;;;7687801;23;20012;-73
2021/01/12 01:03:20;;;;;;;28.38;10.65;;;3.10;54.60;;;;;;7713547;23;20352;-72
2021/01/12 01:06:22;;;;;;;27.70;10.05;;;3.10;54.40;;;;;;7687725;23;20013;-72
2021/01/12 01:09:23;;;;;;;31.88;12.57;;;3.10;54.20;;;;;;7686147;23;20491;-72
2021/01/12 01:12:23;;;;;;;20.88;8.73;;;3.10;54.10;;;;;;7687029;23;20091;-72
2021/01/12 01:15:24;;;;;;;32.85;13.15;;;3.00;54.60;;;;;;7688275;23;20020;-72
2021/01/12 01:18:25;;;;;;;29.55;11.07;;;3.00;53.90;;;;;;7687909;23;20464;-72
2021/01/12 01:21:26;;;;;;;35.72;11.00;;;3.00;53.90;;;;;;7687515;23;20076;-72
2021/01/12 01:24:27;;;;;;;24.05;11.00;;;3.00;53.90;;;;;;7687779;23;20020;-72
2021/01/12 01:27:31;;;;;;;18.13;9.05;;;3.00;54.00;;;;;;7711335;23;20039;-73
2021/01/12 01:30:32;;;;;;;28.95;10.05;;;3.00;53.90;;;;;;7687596;23;20486;-72
2021/01/12 01:33:33;;;;;;;27.23;10.57;;;3.00;53.80;;;;;;7713637;23;20103;-72
2021/01/12 01:36:34;;;;;;;24.35;10.60;;;3.00;53.90;;;;;;7685666;23;20016;-72
2021/01/12 01:39:36;;;;;;;27.88;11.13;;;3.00;54.00;;;;;;7714276;23;20021;-72
2021/01/12 01:42:37;;;;;;;33.45;11.23;;;3.00;54.00;;;;;;7713763;23;20376;-72
2021/01/12 01:45:38;;;;;;;23.65;10.93;;;3.00;54.00;;;;;;7687527;23;20020;-72
2021/01/12 01:48:40;;;;;;;25.63;10.27;;;3.00;54.00;;;;;;7713543;23;20020;-72
2021/01/12 01:51:41;;;;;;;23.10;10.00;;;3.00;54.20;;;;;;7686054;23;20029;-72
2021/01/12 01:54:43;;;;;;;25.50;11.48;;;2.90;54.20;;;;;;7687424;23;20016;-74
2021/01/12 01:57:44;;;;;;;22.60;9.52;;;2.90;54.50;;;;;;7686462;23;20025;-72
2021/01/12 02:00:47;;;;;;;25.10;10.23;;;2.80;54.60;;;;;;7689719;23;20123;-72
2021/01/12 02:04:01;;;;;;;23.65;10.27;;;2.80;54.80;;;;;;7690685;23;20036;-72
2021/01/12 02:07:03;;;;;;;27.48;12.18;;;2.70;54.90;;;;;;7689536;23;20132;-74
2021/01/12 02:10:05;;;;;;;25.15;11.73;;;2.70;55.00;;;;;;7689309;23;20012;-72
2021/01/12 02:13:13;;;;;;;23.25;11.27;;;2.60;55.10;;;;;;7689604;23;20091;-74
2021/01/12 02:16:14;;;;;;;24.15;10.50;;;2.60;55.20;;;;;;7689835;23;20087;-72
2021/01/12 02:19:18;;;;;;;26.15;10.68;;;2.60;55.20;;;;;;7715388;23;20020;-73
2021/01/12 02:22:21;;;;;;;21.45;9.43;;;2.60;55.20;;;;;;7665306;23;20039;-72
2021/01/12 02:25:23;;;;;;;25.33;10.18;;;2.60;55.30;;;;;;7715411;23;20315;-72
2021/01/12 02:28:24;;;;;;;30.40;10.77;;;2.60;55.30;;;;;;7715371;23;20431;-72
2021/01/12 02:31:29;;;;;;;30.83;10.32;;;2.60;55.30;;;;;;7689758;23;20016;-75
2021/01/12 02:34:32;;;;;;;22.50;9.52;;;2.60;55.20;;;;;;7715465;23;20025;-72
2021/01/12 02:37:37;;;;;;;22.77;9.57;;;2.60;55.10;;;;;;7689220;23;20474;-72
2021/01/12 02:40:38;;;;;;;34.50;10.07;;;2.50;55.10;;;;;;7715897;23;20032;-72
2021/01/12 02:43:43;;;;;;;22.23;9.15;;;2.50;55.00;;;;;;7690459;23;20304;-72
2021/01/12 02:46:45;;;;;;;25.52;10.18;;;2.50;55.00;;;;;;7688958;23;20012;-72
2021/01/12 02:49:46;;;;;;;29.23;11.20;;;2.50;55.10;;;;;;7714714;23;20435;-74
2021/01/12 02:52:47;;;;;;;26.60;11.25;;;2.50;55.10;;;;;;7689931;23;20013;-72
2021/01/12 02:55:48;;;;;;;26.83;11.43;;;2.50;55.10;;;;;;7689213;23;20091;-72
2021/01/12 02:58:50;;;;;;;32.63;12.80;;;2.60;55.10;;;;;;7715181;23;20082;-74
2021/01/12 03:02:07;;;;;;;25.98;10.55;;;2.60;55.10;;;;;;7689238;23;20078;-74
2021/01/12 03:05:09;;;;;;;29.25;11.23;;;2.70;55.10;;;;;;7689556;23;20436;-72
2021/01/12 03:08:11;;;;;;;23.15;9.43;;;2.70;55.10;;;;;;7689192;23;20028;-74
2021/01/12 03:11:12;;;;;;;29.67;11.45;;;2.70;55.10;;;;;;7688053;23;20012;-74
2021/01/12 03:14:13;;;;;;;19.50;10.13;;;2.70;55.00;;;;;;7715402;23;20300;-73
2021/01/12 03:17:14;;;;;;;19.92;8.40;;;2.70;55.10;;;;;;7689198;23;20032;-73
2021/01/12 03:20:15;;;;;;;23.42;10.90;;;2.60;55.20;;;;;;7715631;23;20298;-73
2021/01/12 03:23:16;;;;;;;25.13;10.52;;;2.60;55.20;;;;;;7715710;23;20024;-74
2021/01/12 03:26:21;;;;;;;28.05;11.60;;;2.60;55.30;;;;;;7688876;23;20016;-73
2021/01/12 03:29:22;;;;;;;31.52;10.05;;;2.60;55.30;;;;;;7687524;23;20026;-73
2021/01/12 03:32:23;;;;;;;22.25;9.38;;;2.60;55.30;;;;;;7688919;23;20059;-73
2021/01/12 03:35:24;;;;;;;24.02;8.80;;;2.60;55.30;;;;;;7688991;23;20096;-73
2021/01/12 03:38:25;;;;;;;27.75;11.40;;;2.60;55.30;;;;;;7689120;23;20018;-73
2021/01/12 03:41:26;;;;;;;22.67;10.57;;;2.60;55.30;;;;;;7688474;23;20017;-74
2021/01/12 03:44:27;;;;;;;27.23;10.02;;;2.70;55.30;;;;;;7715526;23;20039;-74
2021/01/12 03:47:28;;;;;;;29.05;10.40;;;2.70;55.20;;;;;;7689093;23;20019;-73
2021/01/12 03:50:29;;;;;;;25.88;11.60;;;2.70;55.10;;;;;;7677783;23;20417;-74
2021/01/12 03:53:30;;;;;;;23.00;10.35;;;2.70;55.00;;;;;;7652369;23;20024;-72
2021/01/12 03:56:31;;;;;;;28.75;11.10;;;2.70;54.90;;;;;;7651583;23;20087;-73
2021/01/12 03:59:32;;;;;;;25.92;10.32;;;2.80;54.90;;;;;;7666501;23;20016;-73
2021/01/12 04:02:33;;;;;;;31.10;10.95;;;2.80;54.90;;;;;;7718954;23;20040;-72
2021/01/12 04:05:34;;;;;;;30.52;13.20;;;2.90;55.00;;;;;;7695335;23;20033;-73
2021/01/12 04:08:35;;;;;;;31.15;12.35;;;3.00;55.20;;;;;;7680526;23;20012;-72
2021/01/12 04:11:36;;;;;;;27.23;11.77;;;3.00;55.20;;;;;;7678674;23;20007;-72
2021/01/12 04:14:37;;;;;;;34.67;11.90;;;3.00;55.30;;;;;;7666323;23;20009;-72
2021/01/12 04:17:38;;;;;;;25.58;11.35;;;3.00;55.30;;;;;;7677217;23;20025;-73
2021/01/12 04:20:39;;;;;;;30.52;11.43;;;3.00;55.30;;;;;;7690643;23;20301;-74
2021/01/12 04:23:40;;;;;;;29.05;12.75;;;3.00;55.40;;;;;;7689970;23;20328;-72
2021/01/12 04:26:41;;;;;;;40.38;12.38;;;3.00;55.40;;;;;;7703549;23;20328;-72
2021/01/12 04:29:42;;;;;;;34.47;12.85;;;3.00;55.50;;;;;;7653281;23;20016;-72
2021/01/12 04:32:42;;;;;;;41.75;12.55;;;3.10;55.40;;;;;;7614190;23;20332;-74
2021/01/12 04:35:43;;;;;;;31.33;10.65;;;3.10;55.30;;;;;;7678559;23;20021;-72
2021/01/12 04:38:44;;;;;;;28.25;11.88;;;3.10;55.30;;;;;;7678830;23;20017;-72
2021/01/12 04:41:45;;;;;;;27.20;11.50;;;3.10;55.20;;;;;;7652973;23;20025;-73
2021/01/12 04:44:46;;;;;;;30.42;11.95;;;3.10;55.20;;;;;;7652638;23;20048;-73
2021/01/12 04:47:47;;;;;;;35.10;13.27;;;3.10;55.10;;;;;;7715388;23;20012;-73
2021/01/12 04:50:48;;;;;;;26.58;11.82;;;3.20;55.10;;;;;;7689775;23;20021;-73
2021/01/12 04:53:49;;;;;;;31.88;13.35;;;3.20;55.10;;;;;;7665584;23;20013;-73
2021/01/12 04:56:50;;;;;;;27.35;10.60;;;3.20;55.20;;;;;;7652505;23;20021;-73
2021/01/12 04:59:51;;;;;;;40.75;12.82;;;3.20;55.20;;;;;;7689631;23;20024;-73
2021/01/12 05:03:02;;;;;;;35.25;12.45;;;3.20;55.20;;;;;;7677156;23;20028;-72
2021/01/12 05:06:03;;;;;;;35.17;14.57;;;3.20;55.30;;;;;;7676130;23;20025;-74
2021/01/12 05:09:04;;;;;;;32.78;12.52;;;3.20;55.40;;;;;;7677068;23;20429;-73
2021/01/12 05:12:06;;;;;;;30.70;12.77;;;3.10;55.40;;;;;;7676198;23;20035;-73
2021/01/12 05:15:10;;;;;;;36.25;14.48;;;3.20;55.60;;;;;;7652219;23;20328;-73
2021/01/12 05:18:15;;;;;;;36.00;13.20;;;3.20;55.70;;;;;;7672985;23;20420;-73
2021/01/12 05:21:18;;;;;;;32.83;14.18;;;3.10;55.70;;;;;;7685189;23;20020;-73
2021/01/12 05:24:20;;;;;;;30.15;12.02;;;3.10;55.80;;;;;;7650793;23;20094;-73
2021/01/12 05:27:23;;;;;;;25.10;10.20;;;3.00;55.90;;;;;;7713254;23;20016;-73
2021/01/12 05:30:25;;;;;;;33.40;12.15;;;3.00;56.00;;;;;;7663249;23;20008;-72
2021/01/12 05:33:28;;;;;;;27.50;12.25;;;3.00;56.10;;;;;;7657915;23;20356;-73
2021/01/12 05:36:31;;;;;;;32.05;13.35;;;3.00;56.00;;;;;;7687395;23;20450;-73
2021/01/12 05:39:38;;;;;;;35.17;13.93;;;3.00;56.00;;;;;;7613970;23;20429;-73
2021/01/12 05:42:40;;;;;;;28.38;10.77;;;3.00;56.00;;;;;;7687803;23;20059;-73
2021/01/12 05:45:43;;;;;;;28.83;12.50;;;3.00;55.90;;;;;;7713914;23;20475;-73
2021/01/12 05:48:45;;;;;;;32.20;13.05;;;3.10;56.00;;;;;;7680288;23;20021;-74
2021/01/12 05:51:52;;;;;;;26.42;13.18;;;3.10;55.90;;;;;;7713963;23;20020;-73
2021/01/12 05:55:05;;;;;;;39.20;12.88;;;3.10;55.70;;;;;;7662858;23;20024;-73
2021/01/12 05:58:11;;;;;;;29.98;12.07;;;3.10;55.60;;;;;;7696963;23;20021;-73
2021/01/12 06:01:14;;;;;;;31.67;13.07;;;3.20;55.60;;;;;;7713514;23;20431;-73
2021/01/12 06:04:15;;;;;;;29.00;11.65;;;3.20;55.60;;;;;;7713799;23;20020;-73
2021/01/12 06:07:17;;;;;;;30.70;13.10;;;3.20;55.50;;;;;;7713502;23;20298;-73
2021/01/12 06:10:21;;;;;;;32.13;12.07;;;3.20;55.50;;;;;;7650457;23;20009;-73
2021/01/12 06:13:28;;;;;;;40.88;15.55;;;3.20;55.30;;;;;;7677507;23;20088;-72
2021/01/12 06:16:34;;;;;;;29.15;11.68;;;3.20;55.30;;;;;;7700443;23;20016;-73
2021/01/12 06:19:43;;;;;;;28.40;13.20;;;3.20;55.50;;;;;;7714786;23;20028;-73
2021/01/12 06:22:55;;;;;;;32.45;11.52;;;3.10;55.40;;;;;;7661633;23;20432;-73
2021/01/12 06:25:57;;;;;;;29.85;10.52;;;3.10;55.30;;;;;;7714140;23;20032;-76
2021/01/12 06:28:58;;;;;;;37.38;13.65;;;3.20;55.30;;;;;;7686929;23;20317;-73
2021/01/12 06:31:59;;;;;;;26.23;12.27;;;3.10;55.20;;;;;;7687961;23;20020;-74
2021/01/12 06:35:05;;;;;;;23.13;9.82;;;3.10;55.20;;;;;;7713154;23;20013;-73
2021/01/12 06:38:07;;;;;;;38.50;11.93;;;3.20;55.10;;;;;;7713514;23;20083;-74
2021/01/12 06:41:08;;;;;;;23.00;12.02;;;3.10;54.90;;;;;;7662323;23;20314;-74
2021/01/12 06:44:25;;;;;;;28.58;10.88;;;3.10;54.90;;;;;;7694344;23;20047;-74
2021/01/12 06:47:28;;;;;;;30.27;13.20;;;3.10;55.00;;;;;;7689481;23;20021;-73
2021/01/12 06:50:31;;;;;;;47.60;13.40;;;3.00;55.00;;;;;;7718874;23;20024;-73
2021/01/12 06:53:32;;;;;;;30.08;13.35;;;3.00;55.00;;;;;;7720976;23;20023;-73
2021/01/12 06:56:38;;;;;;;38.35;12.35;;;3.00;54.90;;;;;;7694294;23;20054;-73
2021/01/12 06:59:47;;;;;;;27.25;11.27;;;3.00;54.90;;;;;;7691808;23;20020;-73
2021/01/12 07:02:58;;;;;;;34.03;12.02;;;3.00;54.80;;;;;;7689270;23;20084;-75
2021/01/12 07:06:00;;;;;;;30.63;12.20;;;3.00;54.80;;;;;;7688125;23;20023;-74
2021/01/12 07:09:02;;;;;;;20.23;8.85;;;3.10;54.80;;;;;;7664749;23;20059;-74
2021/01/12 07:12:08;;;;;;;27.38;11.43;;;3.10;54.70;;;;;;7692272;23;20339;-72
2021/01/12 07:15:27;;;;;;;35.55;13.43;;;3.10;54.60;;;;;;7719606;23;20082;-75
2021/01/12 07:18:28;;;;;;;25.58;11.40;;;3.10;54.60;;;;;;7693140;23;20411;-73
2021/01/12 07:21:36;;;;;;;34.17;13.35;;;3.10;54.60;;;;;;7718103;23;20031;-74
2021/01/12 07:24:39;;;;;;;33.47;12.20;;;3.10;54.60;;;;;;7691561;23;20104;-72
2021/01/12 07:27:42;;;;;;;28.65;11.70;;;3.10;54.60;;;;;;7699959;23;20008;-73
2021/01/12 07:30:45;;;;;;;33.67;13.77;;;3.10;54.60;;;;;;7728629;23;20041;-73
2021/01/12 07:33:47;;;;;;;27.65;11.98;;;3.20;54.60;;;;;;7702436;23;20027;-74
2021/01/12 07:36:48;;;;;;;33.28;11.90;;;3.20;54.50;;;;;;7696793;23;20024;-74
2021/01/12 07:39:50;;;;;;;30.10;12.57;;;3.30;54.40;;;;;;7693866;23;20112;-74
2021/01/12 07:42:56;;;;;;;35.97;13.05;;;3.30;54.40;;;;;;7692993;23;20032;-74
2021/01/12 07:45:58;;;;;;;46.03;13.18;;;3.30;54.40;;;;;;7669657;23;20020;-74
2021/01/12 07:48:59;;;;;;;29.35;12.65;;;3.30;54.20;;;;;;7689806;23;20040;-74
2021/01/12 07:52:00;;;;;;;29.23;11.82;;;3.40;54.10;;;;;;7686676;23;20048;-74
2021/01/12 07:55:02;;;;;;;20.60;9.40;;;3.40;53.90;;;;;;7687671;23;20324;-73
2021/01/12 07:58:03;;;;;;;26.17;10.70;;;3.30;53.90;;;;;;7687742;23;20042;-73
2021/01/12 08:01:04;;;;;;;26.02;12.43;;;3.30;53.90;;;;;;7663737;23;20017;-73
2021/01/12 08:04:06;;;;;;;30.63;13.35;;;3.30;53.90;;;;;;7688008;23;20304;-73
2021/01/12 08:07:07;;;;;;;23.77;10.90;;;3.30;53.90;;;;;;7688092;23;20090;-73
2021/01/12 08:10:09;;;;;;;37.35;12.82;;;3.40;53.90;;;;;;7714218;23;20013;-75
2021/01/12 08:13:12;;;;;;;29.05;11.30;;;3.40;53.80;;;;;;7714575;23;20016;-72
2021/01/12 08:16:13;;;;;;;28.95;10.05;;;3.50;53.60;;;;;;7687581;23;20025;-73
2021/01/12 08:19:20;;;;;;;28.50;10.35;;;3.50;53.50;;;;;;7714188;23;20012;-73
2021/01/12 08:22:24;;;;;;;31.83;12.82;;;3.50;53.40;;;;;;7686191;23;20431;-73
2021/01/12 08:25:25;;;;;;;23.05;9.68;;;3.50;53.50;;;;;;7661734;23;20432;-73
2021/01/12 08:28:27;;;;;;;31.42;12.45;;;3.50;53.30;;;;;;7716060;23;20067;-73
2021/01/12 08:31:28;;;;;;;31.58;12.25;;;3.50;53.20;;;;;;7688692;23;20023;-74
2021/01/12 08:34:36;;;;;;;31.77;12.13;;;3.50;53.20;;;;;;7685973;23;20012;-73
2021/01/12 08:37:39;;;;;;;30.27;11.88;;;3.50;53.20;;;;;;7687003;23;20024;-73
2021/01/12 08:40:44;;;;;;;36.50;14.35;;;3.60;53.10;;;;;;7687208;23;20459;-73
2021/01/12 08:43:51;;;;;;;35.90;12.23;;;3.50;53.00;;;;;;7663847;23;20138;-74
2021/01/12 08:46:53;;;;;;;26.73;12.30;;;3.60;53.00;;;;;;7663428;23;20020;-74
2021/01/12 08:50:02;;;;;;;35.95;14.45;;;3.60;53.10;;;;;;7649760;23;20099;-74
2021/01/12 08:53:03;;;;;;;31.95;13.05;;;3.70;53.20;;;;;;7650839;23;20021;-73
2021/01/12 08:56:08;;;;;;;44.78;13.48;;;3.80;53.20;;;;;;7650387;23;20028;-73
2021/01/12 08:59:09;;;;;;;33.88;13.15;;;3.80;53.00;;;;;;7675048;23;20092;-73
2021/01/12 09:02:18;;;;;;;32.78;13.27;;;3.90;52.80;;;;;;7675572;23;20443;-73
2021/01/12 09:05:19;;;;;;;27.70;11.88;;;3.90;52.70;;;;;;7625659;23;20012;-74
2021/01/12 09:08:22;;;;;;;30.90;13.20;;;4.10;52.70;;;;;;7676099;23;20447;-73
2021/01/12 09:11:23;;;;;;;41.10;13.35;;;4.20;52.40;;;;;;7650609;23;20393;-74
2021/01/12 09:14:24;;;;;;;25.40;10.60;;;4.20;52.10;;;;;;7676289;23;20453;-73
2021/01/12 09:17:25;;;;;;;33.47;14.27;;;4.30;51.90;;;;;;7674813;23;20432;-73
2021/01/12 09:20:26;;;;;;;39.35;13.50;;;4.40;51.70;;;;;;7672724;23;20037;-73
2021/01/12 09:23:28;;;;;;;31.40;14.02;;;4.40;51.50;;;;;;7651322;23;20047;-73
2021/01/12 09:26:30;;;;;;;26.60;11.40;;;4.60;51.40;;;;;;7675694;23;20031;-73
2021/01/12 09:29:38;;;;;;;34.05;12.90;;;4.80;51.20;;;;;;7674898;23;20020;-73
2021/01/12 09:32:41;;;;;;;32.35;14.88;;;4.90;50.80;;;;;;7649663;23;20017;-74
2021/01/12 09:35:42;;;;;;;35.15;12.98;;;5.10;50.60;;;;;;7675865;23;20029;-73
2021/01/12 09:38:48;;;;;;;42.25;14.43;;;5.20;50.40;;;;;;7650772;23;20028;-74
2021/01/12 09:41:52;;;;;;;33.78;13.15;;;5.30;50.00;;;;;;7650806;23;20151;-73
2021/01/12 09:44:55;;;;;;;32.85;13.63;;;5.50;49.60;;;;;;7649827;23;20091;-74
2021/01/12 09:47:56;;;;;;;41.95;16.42;;;5.50;49.10;;;;;;7674626;23;20017;-74
2021/01/12 09:50:58;;;;;;;42.40;13.95;;;5.40;49.10;;;;;;7638700;23;20037;-74
2021/01/12 09:53:58;;;;;;;37.17;15.10;;;5.40;49.30;;;;;;7638795;23;20056;-73
2021/01/12 09:57:00;;;;;;;43.05;16.25;;;5.40;49.20;;;;;;7615741;23;20551;-74
2021/01/12 10:00:01;;;;;;;45.05;18.35;;;5.40;49.30;;;;;;7612994;23;20133;-74
2021/01/12 10:03:13;;;;;;;46.13;19.20;;;5.40;49.50;;;;;;7638994;23;20067;-74
2021/01/12 10:06:23;;;;;;;45.63;16.15;;;5.50;49.40;;;;;;7637694;23;20097;-74
2021/01/12 10:09:25;;;;;;;35.75;15.90;;;5.60;49.30;;;;;;7649482;23;20013;-73
2021/01/12 10:12:26;;;;;;;42.00;16.35;;;5.60;49.30;;;;;;7649780;23;20013;-75
2021/01/12 10:15:27;;;;;;;41.97;17.05;;;5.70;49.20;;;;;;7648351;23;20116;-74
2021/01/12 10:18:29;;;;;;;39.47;15.88;;;5.80;48.90;;;;;;7649554;23;20305;-74
2021/01/12 10:21:30;;;;;;;30.02;13.93;;;5.80;48.60;;;;;;7650118;23;20424;-74
2021/01/12 10:24:32;;;;;;;32.53;12.30;;;5.80;48.60;;;;;;7651708;23;20309;-74
2021/01/12 10:27:37;;;;;;;34.33;14.27;;;5.80;48.20;;;;;;7651657;23;20070;-75
2021/01/12 10:30:38;;;;;;;42.42;17.30;;;5.70;48.20;;;;;;7652455;23;20104;-74
2021/01/12 10:33:43;;;;;;;35.88;15.25;;;5.70;48.20;;;;;;7678634;23;20402;-74
2021/01/12 10:36:50;;;;;;;28.08;13.48;;;5.80;48.40;;;;;;7651787;23;20029;-74
2021/01/12 10:39:51;;;;;;;34.70;14.52;;;5.80;48.10;;;;;;7652389;23;20009;-75
2021/01/12 10:42:53;;;;;;;40.60;14.40;;;5.80;47.50;;;;;;7652648;23;20025;-74
2021/01/12 10:45:54;;;;;;;38.25;16.20;;;5.80;47.50;;;;;;7644869;23;20027;-73
2021/01/12 10:48:55;;;;;;;47.35;19.77;;;5.80;47.70;;;;;;7656284;23;20094;-73
2021/01/12 10:52:06;;;;;;;40.42;16.35;;;5.80;47.80;;;;;;7716979;23;20020;-76
2021/01/12 10:55:10;;;;;;;36.13;14.98;;;5.90;47.90;;;;;;7690849;23;20458;-75
2021/01/12 10:58:11;;;;;;;44.88;17.80;;;6.00;47.80;;;;;;7689469;23;20022;-75
2021/01/12 11:01:16;;;;;;;46.45;14.80;;;6.00;47.70;;;;;;7689646;23;20012;-75
2021/01/12 11:04:18;;;;;;;39.13;15.82;;;6.00;47.80;;;;;;7714981;23;20024;-73
2021/01/12 11:07:19;;;;;;;42.25;17.67;;;6.20;47.70;;;;;;7688047;23;20012;-74
2021/01/12 11:10:20;;;;;;;42.05;17.85;;;6.20;47.50;;;;;;7687096;23;20008;-75
2021/01/12 11:13:21;;;;;;;42.58;16.23;;;6.20;47.20;;;;;;7663815;23;20434;-73
2021/01/12 11:16:22;;;;;;;44.17;15.45;;;6.10;47.30;;;;;;7686755;23;20415;-75
2021/01/12 11:19:25;;;;;;;37.10;15.27;;;6.10;47.50;;;;;;7715531;23;20412;-74
2021/01/12 11:22:26;;;;;;;61.38;19.30;;;6.20;47.40;;;;;;7685473;23;20427;-75
2021/01/12 11:25:28;;;;;;;49.10;18.40;;;6.30;47.50;;;;;;7688668;23;20031;-75
2021/01/12 11:28:29;;;;;;;37.20;13.25;;;6.30;47.50;;;;;;7689088;23;20110;-74
2021/01/12 11:31:30;;;;;;;40.65;15.80;;;6.40;47.30;;;;;;7688780;23;20024;-74
2021/01/12 11:34:32;;;;;;;40.30;14.90;;;6.60;47.20;;;;;;7688544;23;20016;-75
2021/01/12 11:37:33;;;;;;;30.95;13.40;;;6.60;47.10;;;;;;7687440;23;20088;-74
2021/01/12 11:40:35;;;;;;;37.38;15.32;;;6.70;47.00;;;;;;7688568;23;20012;-75
2021/01/12 11:43:37;;;;;;;54.05;16.50;;;6.70;46.90;;;;;;7688300;23;20082;-74
2021/01/12 11:46:38;;;;;;;39.40;16.23;;;6.70;46.80;;;;;;7688399;23;20020;-74
2021/01/12 11:49:39;;;;;;;28.92;12.90;;;6.70;46.80;;;;;;7688318;23;20324;-73
2021/01/12 11:52:41;;;;;;;33.33;14.52;;;6.70;46.90;;;;;;7687187;23;20059;-74
2021/01/12 11:55:42;;;;;;;39.22;15.52;;;6.60;46.60;;;;;;7688247;23;20096;-74
2021/01/12 11:58:43;;;;;;;43.20;15.93;;;6.60;46.80;;;;;;7713705;23;20040;-73
2021/01/12 12:01:49;;;;;;;30.95;13.23;;;6.60;46.80;;;;;;7688350;23;20096;-75
2021/01/12 12:04:51;;;;;;;40.17;16.17;;;6.50;46.80;;;;;;7664297;23;20021;-74
2021/01/12 12:07:52;;;;;;;38.83;13.80;;;6.60;46.90;;;;;;7687244;23;20404;-74
2021/01/12 12:10:52;;;;;;;45.80;17.45;;;6.60;46.90;;;;;;7688470;23;20087;-74
2021/01/12 12:13:53;;;;;;;42.90;17.52;;;6.60;46.90;;;;;;7713304;23;20028;-75
2021/01/12 12:16:55;;;;;;;38.67;15.80;;;6.60;46.90;;;;;;7712821;23;20016;-75
2021/01/12 12:19:57;;;;;;;36.42;13.93;;;6.60;46.80;;;;;;7688701;23;20078;-74
2021/01/12 12:22:58;;;;;;;42.33;14.18;;;6.60;46.80;;;;;;7653376;23;20487;-76
2021/01/12 12:25:59;;;;;;;34.35;13.63;;;6.60;46.90;;;;;;7683120;23;20036;-76
2021/01/12 12:29:00;;;;;;;41.95;15.27;;;6.50;47.00;;;;;;7695480;23;20110;-74
2021/01/12 12:32:07;;;;;;;36.35;14.93;;;6.50;47.00;;;;;;7719612;23;20091;-73
2021/01/12 12:35:09;;;;;;;31.63;12.75;;;6.60;47.10;;;;;;7722107;23;20016;-75
2021/01/12 12:38:11;;;;;;;31.10;12.38;;;6.70;47.00;;;;;;7725228;23;20021;-73
2021/01/12 12:41:13;;;;;;;29.92;11.75;;;6.80;46.90;;;;;;7723797;23;20099;-74
2021/01/12 12:44:14;;;;;;;32.28;13.65;;;6.80;46.80;;;;;;7686956;23;20036;-75
2021/01/12 12:47:16;;;;;;;31.35;12.20;;;6.70;47.00;;;;;;7687342;23;20024;-75
2021/01/12 12:50:17;;;;;;;41.80;15.57;;;6.60;47.20;;;;;;7687469;23;20091;-73
2021/01/12 12:53:18;;;;;;;31.45;14.38;;;6.70;47.70;;;;;;7662287;23;20074;-73
2021/01/12 12:56:19;;;;;;;45.58;14.25;;;6.70;47.80;;;;;;7713509;23;20039;-75
2021/01/12 12:59:22;;;;;;;40.15;15.32;;;6.60;47.90;;;;;;7688570;23;20031;-75
2021/01/12 13:02:23;;;;;;;39.75;14.75;;;6.70;48.20;;;;;;7687431;23;20013;-73
2021/01/12 13:05:24;;;;;;;32.22;13.02;;;6.70;48.30;;;;;;7687803;23;20012;-74
2021/01/12 13:08:26;;;;;;;38.90;14.70;;;6.60;48.20;;;;;;7662665;23;20020;-73
2021/01/12 13:11:29;;;;;;;33.08;13.85;;;6.60;48.30;;;;;;7687569;23;20016;-73
2021/01/12 13:14:30;;;;;;;43.75;15.13;;;6.60;48.60;;;;;;7711564;23;20016;-74
2021/01/12 13:17:42;;;;;;;40.45;16.05;;;6.50;49.00;;;;;;7686804;23;20066;-74
2021/01/12 13:20:43;;;;;;;35.97;15.35;;;6.50;49.40;;;;;;7713285;23;20447;-74
2021/01/12 13:23:45;;;;;;;31.58;12.80;;;6.50;49.70;;;;;;7713392;23;20080;-74
2021/01/12 13:26:48;;;;;;;33.17;13.20;;;6.50;50.10;;;;;;7662621;23;20025;-73
2021/01/12 13:29:48;;;;;;;41.67;16.58;;;6.30;50.50;;;;;;7634555;23;20095;-73
2021/01/12 13:32:51;;;;;;;36.08;13.57;;;6.20;51.30;;;;;;7652506;23;20043;-73
2021/01/12 13:35:52;;;;;;;33.17;13.68;;;6.00;51.90;;;;;;7685902;23;20021;-75
2021/01/12 13:38:53;;;;;;;32.25;13.82;;;5.90;52.50;;;;;;7686477;23;20023;-74
2021/01/12 13:41:54;;;;;;;32.85;13.35;;;5.80;52.90;;;;;;7686807;23;20016;-74
2021/01/12 13:44:54;;;;;;;34.60;13.00;;;5.80;53.30;;;;;;7687827;23;20013;-74
2021/01/12 13:47:57;;;;;;;35.97;12.80;;;5.70;53.60;;;;;;7687932;23;20435;-73
2021/01/12 13:50:58;;;;;;;28.63;11.52;;;5.70;54.00;;;;;;7659315;23;20032;-74
2021/01/12 13:54:00;;;;;;;34.22;11.77;;;5.70;54.20;;;;;;7687208;23;20023;-74
2021/01/12 13:57:07;;;;;;;30.70;13.43;;;5.70;54.40;;;;;;7627316;23;20025;-74
2021/01/12 14:00:10;;;;;;;28.80;13.05;;;5.70;54.70;;;;;;7694626;23;20023;-76
2021/01/12 14:03:11;;;;;;;29.35;12.25;;;5.70;55.00;;;;;;7690341;23;20079;-73
2021/01/12 14:06:13;;;;;;;40.15;13.25;;;5.70;55.50;;;;;;7689680;23;20376;-74
2021/01/12 14:09:15;;;;;;;43.90;14.25;;;5.60;55.70;;;;;;7690349;23;20023;-73
2021/01/12 14:12:19;;;;;;;34.28;14.95;;;5.60;56.00;;;;;;7689010;23;20008;-75
2021/01/12 14:15:24;;;;;;;34.47;13.32;;;5.60;56.30;;;;;;7689112;23;20039;-73
2021/01/12 14:18:33;;;;;;;33.28;12.77;;;5.60;56.50;;;;;;7665698;23;20397;-74
2021/01/12 14:21:40;;;;;;;33.63;13.18;;;5.60;56.70;;;;;;7715993;23;20020;-74
2021/01/12 14:24:41;;;;;;;31.67;12.43;;;5.50;57.00;;;;;;7714668;23;20013;-75
2021/01/12 14:27:42;;;;;;;25.58;11.07;;;5.50;57.20;;;;;;7689410;23;20231;-73
2021/01/12 14:30:44;;;;;;;30.13;11.85;;;5.50;57.50;;;;;;7690062;23;20088;-74
2021/01/12 14:33:45;;;;;;;39.58;15.43;;;5.40;58.30;;;;;;7688966;23;20013;-75
2021/01/12 14:36:50;;;;;;;34.13;14.15;;;5.40;57.80;;;;;;7688521;23;20036;-75
2021/01/12 14:39:57;;;;;;;28.73;11.95;;;5.40;58.00;;;;;;7688301;23;20078;-73
2021/01/12 14:42:58;;;;;;;28.45;11.73;;;5.40;58.10;;;;;;7715219;23;20012;-73
2021/01/12 14:46:01;;;;;;;31.70;12.95;;;5.40;58.20;;;;;;7688514;23;20351;-74
2021/01/12 14:49:02;;;;;;;37.03;13.40;;;5.50;58.30;;;;;;7689284;23;20096;-75
2021/01/12 14:52:04;;;;;;;41.10;15.05;;;5.50;58.40;;;;;;7689982;23;20012;-73
2021/01/12 14:55:05;;;;;;;40.80;15.23;;;5.50;58.30;;;;;;7713663;23;20040;-74
2021/01/12 14:58:07;;;;;;;31.13;14.90;;;5.50;58.40;;;;;;7690075;23;20428;-74
2021/01/12 15:01:08;;;;;;;33.50;12.75;;;5.40;58.50;;;;;;7685392;23;20013;-74
2021/01/12 15:04:10;;;;;;;27.77;13.25;;;5.30;58.80;;;;;;7662426;23;20441;-73
2021/01/12 15:07:12;;;;;;;30.27;12.38;;;5.30;58.90;;;;;;7660717;23;20069;-74
2021/01/12 15:10:14;;;;;;;30.42;13.50;;;5.30;59.10;;;;;;7661846;23;20377;-74
2021/01/12 15:13:14;;;;;;;33.63;12.45;;;5.20;59.30;;;;;;7658249;23;20071;-75
2021/01/12 15:16:16;;;;;;;33.92;13.88;;;5.10;59.50;;;;;;7679022;23;20020;-73
2021/01/12 15:19:17;;;;;;;47.58;17.33;;;5.10;59.80;;;;;;7681721;23;20071;-74
2021/01/12 15:22:19;;;;;;;22.58;11.80;;;5.00;60.00;;;;;;7680504;23;20013;-74
2021/01/12 15:25:20;;;;;;;28.30;12.50;;;5.10;60.20;;;;;;7688812;23;20048;-74
2021/01/12 15:28:21;;;;;;;38.70;13.35;;;5.10;60.30;;;;;;7692722;23;20008;-74
2021/01/12 15:31:22;;;;;;;30.10;11.93;;;5.20;60.50;;;;;;7690071;23;20035;-74
2021/01/12 15:34:24;;;;;;;36.70;13.60;;;5.10;60.70;;;;;;7688644;23;20009;-74
2021/01/12 15:38:05;;;;;;;27.05;12.23;;;5.10;60.80;;;;;;7689796;23;20100;-73
2021/01/12 15:41:06;;;;;;;42.20;14.43;;;5.10;60.90;;;;;;7682257;23;20482;-73